Meteo Giornale » Osservazioni meteo Stati Uniti (USA) » Cut Bank
ore: 15:56 - Osservazioni Meteo Cut Bank
Lat. 48° 36' N Lon. 112° 22' W Alt. 1175 metri s.l.m.
27 °C
Sereno
Temp. 24 Ore
6 °C
27 °C
Sud-Est
13 Km/h
Dew point 2 °C
Umidità 19 %
Visibilità 10 Km
Il sole sorge alle ore 06:47
Il sole tramonta alle ore 20:11
| Data e Ora | Cielo e Fenomeni | T °C | DP °C | Um. % | Pres. hPa | Vis. km | Vento km/h | |
|---|---|---|---|---|---|---|---|---|
| Oggi h: 15:56 | Sereno | 27 | 2 | 19 | 1010 | 10 | SE 13 | |
| Oggi h: 14:56 | Sereno | 26 | 3 | 22 | 1010 | 10 | N 11.1 | |
| Oggi h: 13:56 | Sereno | 24 | 4 | 27 | 1011 | 10 | SE 13 | |
| Oggi h: 12:56 | Sereno | 23 | 6 | 33 | 1012 | 10 | N 11.1 | |
| Oggi h: 11:56 | Sereno | 20 | 6 | 39 | 1012 | 10 | N 7.4 | |
| Oggi h: 10:56 | Sereno | 18 | 6 | 45 | 1013 | 10 | E/SE 9.3 | |
| Oggi h: 09:56 | Sereno | 15 | 5 | 51 | 1013 | 10 | N 0 | |
| Oggi h: 08:56 | Sereno | 11 | 4 | 61 | 1014 | 10 | E/NE 7.4 | |
| Oggi h: 07:56 | Sereno | 7 | 3 | 75 | 1013 | 10 | N 0 | |
| Oggi h: 06:56 | Sereno | 6 | 3 | 81 | 1013 | 10 | O/NO 11.1 | |
| Oggi h: 05:56 | Sereno | 6 | 2 | 75 | 1013 | 10 | NO 11.1 | |
| Oggi h: 04:56 | Sereno | 6 | 3 | 81 | 1014 | 10 | NO 13 | |
| Oggi h: 03:56 | Sereno | 6 | 3 | 81 | 1014 | 10 | O/NO 9.3 | |
| Oggi h: 02:56 | Sereno | 7 | 3 | 75 | 1014 | 10 | N 9.3 | |
| Oggi h: 01:56 | Sereno | 10 | 3 | 61 | 1014 | 10 | N 5.5 | |
| Oggi h: 00:56 | Sereno | 9 | 3 | 66 | 1014 | 10 | N 5.5 | |
| Ieri h: 23:56 | Sereno | 16 | 2 | 38 | 1015 | 10 | N 0 | |
| Ieri h: 22:56 | Sereno | 17 | 2 | 36 | 1015 | 10 | N 5.5 | |
| Ieri h: 21:56 | Sereno | 16 | 3 | 41 | 1015 | 10 | N 5.5 | |
| Ieri h: 20:56 | Sereno | 17 | 4 | 41 | 1014 | 10 | O/NO 16.7 | |
| Ieri h: 19:56 | Sereno | 21 | 5 | 35 | 1014 | 10 | O 7.4 | |
| Ieri h: 18:56 | Sereno | 23 | 3 | 26 | 1014 | 10 | O 18.5 | |
| Ieri h: 17:56 | Sereno | 24 | 4 | 27 | 1014 | 10 | O/SO 14.8 | |
| Ieri h: 16:56 | Sereno | 24 | 4 | 27 | 1014 | 10 | N 0 | |



